Home   Weather   Finland   Turku   Past weeks
Flag for Finland

Past Weather in Turku, Finland — Yesterday and Last 2 Weeks

Currently: 66 °F. Sunny. (Weather station: Turku Airport, Finland). See more current weather

Past Weather in Turku — Graph

°F

Turku Temperature Yesterday

Maximum temperature yesterday: 82 °F (at 2:50 pm)
Minimum temperature yesterday: 66 °F (at 12:20 am)
Average temperature yesterday: 74 °F

High & Low Weather Summary for the Past Weeks

 TemperatureHumidityPressure
High82 °F (Jun 19, 3:20 pm)100% (Jun 8, 10:50 pm)30.15 "Hg (Jun 8, 10:50 pm)
Low43 °F (Jun 14, 1:50 am)27% (Jun 11, 5:20 pm)29.50 "Hg (Jun 12, 3:20 pm)
Average64 °F65%29.95 "Hg
* Reported Jun 6 3:20 am — Jun 21 3:50 am, Turku. Weather by CustomWeather, © 2021

Note: Actual official high and low records may vary slightly from our data, if they occured in-between our weather recording intervals... More about our weather records

Turku Weather History for the Previous 24 Hours

Scroll right to see more
 ConditionsComfort  
Time TempWeatherWind HumidityBarometerVisibility
3:50 am
Mon, Jun 21
66 °FClear.8 mph88%29.86 "Hg10 mi
3:20 am66 °FClear.7 mph88%29.86 "Hg10 mi
2:50 am68 °FClear.6 mph83%29.86 "Hg10 mi
2:20 am68 °FPassing clouds.6 mph83%29.86 "HgN/A
1:50 am68 °FClear.6 mph83%29.86 "Hg10 mi
1:20 am68 °FPassing clouds.5 mph83%29.86 "HgN/A
12:50 am70 °FClear.6 mph78%29.89 "Hg10 mi
12:20 am70 °FPassing clouds.7 mph78%29.89 "HgN/A
11:50 pm
Sun, Jun 20
70 °FClear.6 mph78%29.89 "Hg10 mi
11:20 pm72 °FClear.7 mph73%29.89 "Hg10 mi
10:50 pm72 °FSunny.7 mph73%29.89 "Hg10 mi
10:20 pm72 °FSunny.6 mph69%29.89 "Hg10 mi
9:50 pm73 °FSunny.7 mph65%29.89 "Hg10 mi
9:20 pm73 °FSunny.7 mph65%29.89 "Hg10 mi
8:50 pm73 °FSunny.8 mph65%29.89 "Hg10 mi
8:20 pm75 °FPassing clouds.8 mph61%29.89 "HgN/A
7:50 pm77 °FSunny.8 mph61%29.89 "Hg10 mi
7:20 pm77 °FSunny.8 mph57%29.89 "Hg10 mi
6:50 pm79 °FPassing clouds.8 mph54%29.89 "HgN/A
6:20 pm81 °FPassing clouds.8 mph51%29.89 "HgN/A
5:50 pm81 °FPassing clouds.9 mph51%29.89 "HgN/A
5:20 pm81 °FPassing clouds.10 mph48%29.89 "HgN/A
4:50 pm81 °FPassing clouds.8 mph51%29.89 "HgN/A
4:20 pm81 °FPassing clouds.10 mph51%29.89 "HgN/A
3:50 pm81 °FPassing clouds.10 mph51%29.89 "HgN/A
3:20 pm82 °FPassing clouds.10 mph48%29.89 "HgN/A
2:50 pm82 °FPassing clouds.12 mph48%29.89 "HgN/A
2:20 pm81 °FPassing clouds.12 mph51%29.89 "HgN/A
1:50 pm79 °FPassing clouds.12 mph54%29.89 "HgN/A
1:20 pm81 °FPassing clouds.9 mph51%29.89 "HgN/A
12:50 pm79 °FPassing clouds.12 mph54%29.92 "HgN/A
12:20 pm79 °FPassing clouds.10 mph54%29.92 "HgN/A
11:50 am77 °FPassing clouds.9 mph57%29.92 "HgN/A
11:20 am77 °FPassing clouds.9 mph57%29.92 "HgN/A
10:50 am77 °FPassing clouds.9 mph57%29.89 "HgN/A
10:20 am75 °FPassing clouds.9 mph57%29.89 "HgN/A
9:50 am73 °FSunny.10 mph61%29.89 "Hg10 mi
8:50 am73 °FSunny.10 mph61%29.89 "Hg10 mi
8:20 am72 °FPassing clouds.7 mph65%29.89 "HgN/A
7:50 am70 °FPassing clouds.8 mph69%29.89 "HgN/A
7:20 am70 °FSunny.9 mph69%29.89 "Hg10 mi
6:50 am68 °FPassing clouds.9 mph73%29.89 "HgN/A
6:20 am68 °FPassing clouds.9 mph73%29.89 "HgN/A
5:50 am68 °FSunny.8 mph69%29.89 "Hg10 mi
5:20 am68 °FPassing clouds.9 mph69%29.89 "HgN/A
Weather by CustomWeather, © 2021

See weather overview